Time;durP1;ratioP1;P1;durP2;ratioP2;P2;SDS_P1;SDS_P2;PMS_P1;PMS_P2;Temp;Humidity;BMP_temperature;BMP_pressure;BME280_temperature;BME280_humidity;BME280_pressure;Samples;Min_cycle;Max_cycle;Signal;HPM_P1;HPM_P2
2023/06/09 00:01:47;;;;;;;27.30;7.25;;;12.40;99.90;;;;;;5094136;28;20097;-80
2023/06/09 00:04:13;;;;;;;21.70;6.65;;;12.40;99.90;;;;;;5093857;28;20450;-79
2023/06/09 00:06:39;;;;;;;22.50;7.10;;;12.40;99.90;;;;;;5093854;28;20082;-79
2023/06/09 00:09:06;;;;;;;19.33;6.38;;;12.40;99.90;;;;;;5094106;28;20040;-80
2023/06/09 00:11:33;;;;;;;16.38;6.10;;;12.40;99.90;;;;;;5093828;28;20111;-80
2023/06/09 00:14:02;;;;;;;19.25;6.53;;;12.40;99.90;;;;;;5093288;28;20040;-80
2023/06/09 00:16:28;;;;;;;21.05;6.85;;;12.40;99.90;;;;;;5093592;28;20144;-80
2023/06/09 00:19:01;;;;;;;27.38;7.50;;;12.40;99.90;;;;;;5093733;28;20518;-79
2023/06/09 00:21:27;;;;;;;;;;;12.40;99.90;;;;;;5094310;28;20052;-79
2023/06/09 00:23:52;;;;;;;19.95;6.72;;;12.40;99.90;;;;;;5110816;28;19916;-79
2023/06/09 00:26:18;;;;;;;28.38;7.78;;;12.40;99.90;;;;;;5093620;28;20037;-79
2023/06/09 00:28:44;;;;;;;20.33;6.55;;;12.40;99.90;;;;;;5093563;28;20040;-80
2023/06/09 00:31:10;;;;;;;18.70;6.30;;;12.40;99.90;;;;;;5094453;28;20062;-79
2023/06/09 00:33:36;;;;;;;15.90;5.82;;;12.40;99.90;;;;;;5093360;28;20077;-84
2023/06/09 00:36:02;;;;;;;19.92;6.03;;;12.40;99.90;;;;;;5093381;28;20036;-79
2023/06/09 00:38:27;;;;;;;17.33;5.85;;;12.40;99.90;;;;;;5094290;28;20048;-79
2023/06/09 00:40:53;;;;;;;17.83;6.35;;;12.40;99.90;;;;;;5093081;28;20055;-79
2023/06/09 00:43:19;;;;;;;20.25;6.50;;;12.50;99.90;;;;;;5093031;28;20048;-79
2023/06/09 00:45:46;;;;;;;20.98;6.47;;;12.40;99.90;;;;;;5093016;28;20056;-79
2023/06/09 00:48:14;;;;;;;21.10;6.80;;;12.50;99.90;;;;;;5093359;28;20056;-79
2023/06/09 00:50:40;;;;;;;16.58;6.15;;;12.40;99.90;;;;;;5092923;28;20044;-79
2023/06/09 00:53:09;;;;;;;17.25;5.82;;;12.40;99.90;;;;;;5093036;28;20093;-79
2023/06/09 00:55:38;;;;;;;22.13;6.45;;;12.40;99.90;;;;;;5092838;28;20123;-79
2023/06/09 00:58:04;;;;;;;20.08;6.18;;;12.40;99.90;;;;;;5092876;28;20117;-79
2023/06/09 01:00:31;;;;;;;20.75;6.13;;;12.40;99.90;;;;;;5092942;28;20540;-79
2023/06/09 01:03:00;;;;;;;20.02;6.50;;;12.40;99.90;;;;;;5093128;28;20054;-80
2023/06/09 01:05:35;;;;;;;16.17;6.10;;;12.40;99.90;;;;;;5093084;28;20044;-79
2023/06/09 01:08:17;;;;;;;20.77;6.28;;;12.40;99.90;;;;;;5094092;28;20040;-79
2023/06/09 01:11:07;;;;;;;27.42;6.25;;;12.40;99.90;;;;;;5092923;28;20372;-79
2023/06/09 01:13:55;;;;;;;20.27;6.53;;;12.40;99.90;;;;;;5093033;28;20086;-79
2023/06/09 01:16:30;;;;;;;18.05;6.32;;;12.40;99.90;;;;;;5092830;28;20043;-79
2023/06/09 01:18:59;;;;;;;17.95;7.28;;;12.40;99.90;;;;;;5092884;28;20044;-80
2023/06/09 01:21:41;;;;;;;19.38;6.80;;;12.40;99.90;;;;;;5092541;28;20052;-79
2023/06/09 01:24:23;;;;;;;17.95;7.22;;;12.40;99.90;;;;;;5091764;28;20051;-79
2023/06/09 01:26:50;;;;;;;18.08;7.13;;;12.40;99.90;;;;;;5092715;28;20087;-79
2023/06/09 01:29:18;;;;;;;20.83;6.80;;;12.30;99.90;;;;;;5092523;28;20433;-80
2023/06/09 01:31:46;;;;;;;20.45;7.15;;;12.30;99.90;;;;;;5092407;28;20059;-79
2023/06/09 01:34:13;;;;;;;22.15;6.72;;;12.40;99.90;;;;;;5092810;28;20055;-79
2023/06/09 01:36:40;;;;;;;23.70;6.60;;;12.30;99.90;;;;;;5092468;28;20055;-79
2023/06/09 01:39:06;;;;;;;22.60;6.60;;;12.30;99.90;;;;;;5092637;28;20048;-80
2023/06/09 01:41:32;;;;;;;20.73;6.95;;;12.20;99.90;;;;;;5093832;28;20111;-80
2023/06/09 01:43:57;;;;;;;16.52;6.88;;;12.20;99.90;;;;;;5092398;28;20131;-79
2023/06/09 01:46:23;;;;;;;18.02;7.57;;;12.30;99.90;;;;;;5092239;28;20048;-79
2023/06/09 01:49:11;;;;;;;17.98;6.53;;;12.20;99.90;;;;;;5092406;28;20105;-80
2023/06/09 01:51:52;;;;;;;22.80;6.88;;;12.30;99.90;;;;;;5092273;28;20056;-80
2023/06/09 01:54:43;;;;;;;21.60;7.50;;;12.20;99.90;;;;;;5092337;28;20044;-79
2023/06/09 01:57:31;;;;;;;22.50;8.35;;;12.20;99.90;;;;;;5085143;28;20411;-79
2023/06/09 02:00:03;;;;;;;16.90;5.95;;;12.30;99.90;;;;;;5092730;28;20475;-87
2023/06/09 02:02:32;;;;;;;19.83;6.80;;;12.20;99.90;;;;;;5092121;28;20079;-83
2023/06/09 02:04:59;;;;;;;20.40;6.85;;;12.20;99.90;;;;;;5092604;28;20102;-83
2023/06/09 02:07:26;;;;;;;18.80;6.45;;;12.20;99.90;;;;;;5093497;28;20089;-84
2023/06/09 02:09:52;;;;;;;15.77;6.28;;;12.30;99.90;;;;;;5093449;28;20059;-84
2023/06/09 02:12:18;;;;;;;21.10;7.50;;;12.20;99.90;;;;;;5093255;28;20388;-83
2023/06/09 02:14:43;;;;;;;20.75;7.20;;;12.20;99.90;;;;;;5092606;28;20472;-84
2023/06/09 02:17:09;;;;;;;17.48;7.50;;;12.20;99.90;;;;;;5093082;28;20040;-79
2023/06/09 02:19:38;;;;;;;17.42;7.80;;;12.20;99.90;;;;;;5093201;28;20127;-79
2023/06/09 02:22:07;;;;;;;21.20;6.97;;;12.20;99.90;;;;;;5093321;28;20044;-79
2023/06/09 02:24:34;;;;;;;21.73;7.22;;;12.20;99.90;;;;;;5093364;28;20111;-80
2023/06/09 02:27:01;;;;;;;23.17;7.82;;;12.20;99.90;;;;;;5091777;28;20048;-80
2023/06/09 02:29:27;;;;;;;22.50;7.32;;;12.20;99.90;;;;;;5074905;28;20048;-80
2023/06/09 02:31:54;;;;;;;18.67;6.95;;;12.20;99.90;;;;;;5091746;28;20055;-79
2023/06/09 02:34:22;;;;;;;18.45;7.35;;;12.20;99.90;;;;;;5092141;28;20044;-79
2023/06/09 02:36:52;;;;;;;22.10;6.95;;;12.20;99.90;;;;;;5095809;28;20046;-79
2023/06/09 02:39:21;;;;;;;18.05;7.20;;;12.20;99.90;;;;;;5095596;28;20044;-79
2023/06/09 02:41:47;;;;;;;23.70;7.70;;;12.20;99.90;;;;;;5095415;28;20123;-79
2023/06/09 02:44:13;;;;;;;22.23;7.75;;;12.20;99.90;;;;;;5095376;28;20122;-79
2023/06/09 02:46:42;;;;;;;19.42;6.28;;;12.20;99.90;;;;;;5095306;28;20048;-79
2023/06/09 02:49:09;;;;;;;17.77;7.00;;;12.20;99.90;;;;;;5095407;28;20479;-79
2023/06/09 02:51:36;;;;;;;21.20;7.00;;;12.20;99.90;;;;;;5095273;28;20048;-79
2023/06/09 02:54:02;;;;;;;18.48;6.95;;;12.20;99.90;;;;;;5095311;28;20052;-80
2023/06/09 02:56:28;;;;;;;24.23;7.60;;;12.20;99.90;;;;;;5112146;28;20047;-79
2023/06/09 02:58:54;;;;;;;20.65;7.40;;;12.10;99.90;;;;;;5095360;28;20036;-80
2023/06/09 03:01:20;;;;;;;18.58;7.40;;;12.10;99.90;;;;;;5095032;28;20040;-80
2023/06/09 03:03:47;;;;;;;25.63;7.70;;;12.10;99.90;;;;;;5094842;28;20520;-80
2023/06/09 03:06:14;;;;;;;21.65;7.20;;;12.10;99.90;;;;;;5094572;28;20479;-80
2023/06/09 03:08:41;;;;;;;21.52;6.90;;;12.10;99.90;;;;;;5094472;28;20058;-80
2023/06/09 03:11:06;;;;;;;20.73;6.82;;;12.10;99.90;;;;;;5093733;28;20051;-80
2023/06/09 03:13:32;;;;;;;22.77;7.40;;;12.10;99.90;;;;;;5094408;28;20044;-79
2023/06/09 03:15:58;;;;;;;17.13;7.45;;;12.10;99.90;;;;;;5094684;28;20150;-79
2023/06/09 03:18:25;;;;;;;21.35;7.75;;;12.10;99.90;;;;;;5096137;28;20122;-79
2023/06/09 03:20:50;;;;;;;18.73;7.63;;;12.10;99.90;;;;;;5094611;28;20052;-79
2023/06/09 03:23:17;;;;;;;20.45;7.63;;;12.10;99.90;;;;;;5094689;28;20054;-79
2023/06/09 03:25:43;;;;;;;17.80;7.28;;;12.10;99.90;;;;;;5094511;28;20132;-79
2023/06/09 03:28:09;;;;;;;13.90;6.57;;;12.10;99.90;;;;;;5095857;28;20131;-79
2023/06/09 03:30:35;;;;;;;18.60;7.18;;;12.10;99.90;;;;;;5094618;28;20407;-79
2023/06/09 03:33:00;;;;;;;19.73;7.05;;;12.10;99.90;;;;;;5094172;28;20050;-80
2023/06/09 03:35:26;;;;;;;25.20;7.80;;;12.10;99.90;;;;;;5094227;28;20048;-79
2023/06/09 03:37:52;;;;;;;19.13;6.28;;;12.20;99.90;;;;;;5094158;28;20499;-79
2023/06/09 03:40:17;;;;;;;20.13;6.85;;;12.20;99.90;;;;;;5094401;28;20122;-79
2023/06/09 03:42:43;;;;;;;18.45;7.65;;;12.20;99.90;;;;;;5094355;28;20055;-79
2023/06/09 03:45:10;;;;;;;18.98;7.18;;;12.20;99.90;;;;;;5093883;28;20063;-79
2023/06/09 03:47:40;;;;;;;27.50;7.50;;;12.20;99.90;;;;;;5094590;28;20044;-79
2023/06/09 03:50:09;;;;;;;20.70;8.25;;;12.20;99.90;;;;;;5095118;28;20055;-79
2023/06/09 03:52:36;;;;;;;18.15;6.32;;;12.20;99.90;;;;;;5093976;28;20040;-79
2023/06/09 03:55:01;;;;;;;16.50;7.15;;;12.20;99.90;;;;;;5094139;28;20495;-79
2023/06/09 03:57:27;;;;;;;20.73;6.70;;;12.20;99.90;;;;;;5094031;28;20056;-79
2023/06/09 03:59:53;;;;;;;22.23;7.63;;;12.20;99.90;;;;;;5094019;28;20130;-79
2023/06/09 04:02:19;;;;;;;19.48;6.82;;;12.20;99.90;;;;;;5110783;28;20583;-79
2023/06/09 04:04:44;;;;;;;18.00;7.15;;;12.20;99.90;;;;;;5093674;28;20044;-79
2023/06/09 04:07:14;;;;;;;19.30;8.40;;;12.20;99.90;;;;;;5093616;28;20083;-79
2023/06/09 04:09:40;;;;;;;18.42;6.97;;;12.20;99.90;;;;;;5093544;28;20083;-79
2023/06/09 04:12:06;;;;;;;19.63;6.60;;;12.30;99.90;;;;;;5093473;28;20133;-79
2023/06/09 04:14:32;;;;;;;16.25;6.43;;;12.30;99.90;;;;;;5093768;28;20086;-79
2023/06/09 04:16:57;;;;;;;22.33;7.30;;;12.30;99.90;;;;;;5093977;28;20522;-79
2023/06/09 04:19:23;;;;;;;17.52;7.22;;;12.30;99.90;;;;;;5093269;28;20118;-79
2023/06/09 04:21:49;;;;;;;21.88;7.65;;;12.40;99.90;;;;;;5093269;28;20113;-79
2023/06/09 04:24:19;;;;;;;17.42;6.82;;;12.40;99.90;;;;;;5093350;28;20051;-79
2023/06/09 04:26:47;;;;;;;17.77;7.13;;;12.50;99.90;;;;;;5094642;28;20048;-80
2023/06/09 04:29:15;;;;;;;20.13;6.90;;;12.60;99.90;;;;;;5093222;28;20040;-79
2023/06/09 04:31:42;;;;;;;16.70;6.22;;;12.60;99.90;;;;;;5093207;28;20051;-80
2023/06/09 04:34:12;;;;;;;19.35;6.90;;;12.70;99.90;;;;;;5094678;28;20098;-79
2023/06/09 04:36:39;;;;;;;20.02;7.50;;;12.60;99.90;;;;;;5093121;28;20044;-79
2023/06/09 04:39:09;;;;;;;21.10;8.52;;;12.60;99.90;;;;;;5110401;28;20055;-79
2023/06/09 04:41:37;;;;;;;19.45;7.03;;;12.60;99.90;;;;;;5093221;28;20364;-79
2023/06/09 04:44:06;;;;;;;19.20;7.22;;;12.60;99.90;;;;;;5093221;28;20044;-80
2023/06/09 04:46:38;;;;;;;21.48;7.22;;;12.70;99.90;;;;;;5092750;28;20093;-80
2023/06/09 04:49:10;;;;;;;24.95;7.28;;;12.70;99.90;;;;;;5092856;28;20058;-80
2023/06/09 04:51:48;;;;;;;18.85;6.97;;;12.80;99.90;;;;;;5093130;28;20043;-79
2023/06/09 04:54:18;;;;;;;17.90;6.80;;;12.80;99.90;;;;;;5093007;28;20106;-79
2023/06/09 04:56:52;;;;;;;17.08;6.75;;;12.90;99.90;;;;;;5092767;28;20050;-80
2023/06/09 04:59:21;;;;;;;18.33;7.82;;;12.90;99.90;;;;;;5092862;28;20101;-79
2023/06/09 05:01:47;;;;;;;20.52;7.07;;;13.00;99.90;;;;;;5092927;28;20059;-79
2023/06/09 05:04:17;;;;;;;22.52;8.00;;;13.10;99.90;;;;;;5092525;28;20046;-79
2023/06/09 05:06:46;;;;;;;17.95;6.65;;;13.20;99.90;;;;;;5092806;28;20381;-78
2023/06/09 05:09:12;;;;;;;19.15;6.57;;;13.20;99.90;;;;;;5092796;28;20047;-79
2023/06/09 05:11:37;;;;;;;21.98;7.97;;;13.20;99.90;;;;;;5092478;28;20044;-80
2023/06/09 05:14:07;;;;;;;18.75;6.95;;;13.30;99.90;;;;;;5092803;28;20437;-80
2023/06/09 05:16:34;;;;;;;20.48;7.03;;;13.30;99.90;;;;;;5092658;28;20075;-78
2023/06/09 05:19:00;;;;;;;26.15;7.82;;;13.20;99.90;;;;;;5092426;28;20052;-79
2023/06/09 05:21:26;;;;;;;34.13;8.27;;;13.30;99.90;;;;;;5092383;28;20044;-79
2023/06/09 05:23:52;;;;;;;26.00;7.07;;;13.20;99.90;;;;;;5092579;28;20067;-80
2023/06/09 05:26:18;;;;;;;24.73;7.20;;;13.30;99.90;;;;;;5092355;28;20423;-79
2023/06/09 05:28:45;;;;;;;26.45;7.10;;;13.40;99.90;;;;;;5092589;28;20119;-79
2023/06/09 05:31:17;;;;;;;17.15;6.40;;;13.40;99.90;;;;;;5092274;28;20480;-79
2023/06/09 05:33:44;;;;;;;17.43;5.87;;;13.40;99.90;;;;;;5092300;28;20059;-80
2023/06/09 05:36:09;;;;;;;17.40;6.07;;;13.40;99.90;;;;;;5092165;28;20044;-79
2023/06/09 05:38:35;;;;;;;20.23;6.53;;;13.60;99.90;;;;;;5092461;28;20047;-80
2023/06/09 05:41:07;;;;;;;20.27;6.20;;;13.70;99.90;;;;;;5092222;28;20488;-83
2023/06/09 05:43:33;;;;;;;22.05;7.50;;;13.90;99.90;;;;;;5092183;28;20051;-79
2023/06/09 05:45:58;;;;;;;18.50;7.30;;;13.90;99.90;;;;;;5092030;28;20048;-79
2023/06/09 05:48:24;;;;;;;24.08;6.95;;;13.80;99.90;;;;;;5092052;28;20491;-79
2023/06/09 05:50:50;;;;;;;17.52;6.90;;;13.70;99.90;;;;;;5095907;28;20053;-79
2023/06/09 05:53:17;;;;;;;23.50;7.13;;;13.70;99.90;;;;;;5112460;28;20044;-79
2023/06/09 05:55:47;;;;;;;19.60;7.28;;;13.70;99.90;;;;;;5112694;28;20104;-80
2023/06/09 05:58:14;;;;;;;20.73;6.70;;;13.80;99.90;;;;;;5112640;28;20043;-79
2023/06/09 06:00:40;;;;;;;21.40;7.47;;;13.80;99.90;;;;;;5112263;28;20043;-79
2023/06/09 06:03:08;;;;;;;22.13;7.45;;;13.80;99.90;;;;;;5112572;28;20105;-80
2023/06/09 06:05:33;;;;;;;25.52;6.63;;;13.90;99.90;;;;;;5113491;28;20505;-79
2023/06/09 06:08:00;;;;;;;24.30;6.72;;;13.90;99.90;;;;;;5113463;28;20047;-79
2023/06/09 06:10:26;;;;;;;20.88;6.65;;;13.90;99.90;;;;;;5112697;28;20148;-79
2023/06/09 06:12:52;;;;;;;19.77;6.85;;;14.00;99.90;;;;;;5116199;28;20142;-79
2023/06/09 06:15:18;;;;;;;26.17;7.57;;;14.10;99.90;;;;;;5116456;28;20452;-79
2023/06/09 06:17:44;;;;;;;21.90;6.78;;;14.30;99.90;;;;;;5117640;28;20051;-79
2023/06/09 06:20:12;;;;;;;19.80;6.50;;;14.30;99.90;;;;;;5116275;28;20101;-79
2023/06/09 06:22:39;;;;;;;14.98;5.82;;;14.30;99.90;;;;;;5116022;28;20494;-79
2023/06/09 06:25:05;;;;;;;17.90;6.15;;;14.60;99.90;;;;;;5116057;28;20141;-79
2023/06/09 06:27:33;;;;;;;14.10;5.60;;;14.60;99.90;;;;;;5116204;28;20115;-80
2023/06/09 06:30:02;;;;;;;13.82;6.15;;;14.70;99.90;;;;;;5115962;28;20043;-80
2023/06/09 06:32:28;;;;;;;13.70;6.03;;;14.60;99.90;;;;;;5115145;28;20051;-79
2023/06/09 06:34:53;;;;;;;13.07;5.70;;;14.60;99.90;;;;;;5115996;28;20440;-80
2023/06/09 06:37:19;;;;;;;17.33;5.85;;;14.80;99.90;;;;;;5115769;28;20055;-79
2023/06/09 06:39:47;;;;;;;17.23;5.78;;;14.90;99.90;;;;;;5115765;28;20062;-78
2023/06/09 06:42:13;;;;;;;17.20;5.85;;;14.90;99.90;;;;;;5117160;28;20047;-79
2023/06/09 06:44:38;;;;;;;21.70;6.22;;;15.10;99.90;;;;;;5115904;28;20062;-78
2023/06/09 06:47:04;;;;;;;15.43;6.53;;;15.00;99.90;;;;;;5115400;28;20555;-79
2023/06/09 06:49:33;;;;;;;15.75;6.68;;;15.00;99.90;;;;;;5115477;28;20126;-78
2023/06/09 06:51:58;;;;;;;14.45;6.63;;;14.80;99.90;;;;;;5115399;28;20046;-77
2023/06/09 06:54:24;;;;;;;14.57;5.78;;;14.60;99.90;;;;;;5115000;28;20047;-78
2023/06/09 06:56:50;;;;;;;18.05;6.15;;;14.80;99.90;;;;;;5114742;28;20036;-77
2023/06/09 06:59:15;;;;;;;17.40;6.30;;;14.90;99.90;;;;;;5115564;28;20046;-78
2023/06/09 07:01:41;;;;;;;17.00;6.22;;;14.90;99.90;;;;;;5115237;28;20044;-76
2023/06/09 07:04:07;;;;;;;19.30;6.57;;;15.00;99.90;;;;;;5116714;28;20028;-77
2023/06/09 07:06:33;;;;;;;14.52;6.00;;;15.10;99.90;;;;;;5115100;28;20447;-76
2023/06/09 07:08:59;;;;;;;15.90;6.30;;;15.30;99.90;;;;;;5115300;28;20056;-76
2023/06/09 07:11:25;;;;;;;17.48;6.65;;;15.30;99.90;;;;;;5116180;28;20074;-77
2023/06/09 07:13:51;;;;;;;19.55;6.57;;;15.30;99.90;;;;;;5114832;28;20047;-77
2023/06/09 07:16:18;;;;;;;14.35;6.70;;;15.30;99.90;;;;;;5114723;28;20051;-77
2023/06/09 08:24:27;;;;;;;16.20;7.35;;;17.50;99.90;;;;;;5090583;27;20796;-75
2023/06/09 08:26:54;;;;;;;17.27;7.30;;;17.40;99.90;;;;;;5089242;28;20048;-74
2023/06/09 08:29:20;;;;;;;16.38;7.00;;;17.40;99.90;;;;;;5089283;28;20098;-73
2023/06/09 08:31:46;;;;;;;15.07;6.82;;;17.70;99.90;;;;;;5089207;28;20044;-74
2023/06/09 08:34:11;;;;;;;18.52;6.38;;;18.00;99.90;;;;;;5089293;28;20044;-74
2023/06/09 08:36:37;;;;;;;16.92;6.70;;;18.10;99.90;;;;;;5089551;28;20097;-74
2023/06/09 08:39:02;;;;;;;16.05;6.65;;;18.00;99.90;;;;;;5089436;28;20055;-74
2023/06/09 08:41:33;;;;;;;16.88;6.72;;;17.90;99.90;;;;;;5090676;28;20513;-74
2023/06/09 08:44:01;;;;;;;16.42;6.82;;;17.70;99.90;;;;;;5089454;28;20048;-74
2023/06/09 08:46:31;;;;;;;18.05;7.50;;;18.00;99.90;;;;;;5089401;28;20059;-75
2023/06/09 08:49:01;;;;;;;19.63;6.75;;;18.10;99.90;;;;;;5089921;28;20048;-74
2023/06/09 08:51:28;;;;;;;14.02;6.75;;;18.00;99.90;;;;;;5090280;28;20048;-74
2023/06/09 08:53:54;;;;;;;15.02;6.53;;;18.20;99.90;;;;;;5088901;28;20051;-73
2023/06/09 08:56:21;;;;;;;24.23;6.78;;;18.10;99.90;;;;;;5088955;28;20078;-74
2023/06/09 08:58:48;;;;;;;15.07;6.32;;;18.40;99.90;;;;;;5089348;28;20047;-73
2023/06/09 09:01:14;;;;;;;17.20;6.60;;;18.50;99.90;;;;;;5123378;28;20107;-73
2023/06/09 09:03:40;;;;;;;15.77;6.57;;;18.40;99.90;;;;;;5088789;28;20182;-73
2023/06/09 09:06:06;;;;;;;16.77;7.82;;;18.50;99.90;;;;;;5088717;28;20161;-74
2023/06/09 09:08:32;;;;;;;18.05;6.53;;;18.90;99.90;;;;;;5122883;28;20137;-73
2023/06/09 09:10:58;;;;;;;15.15;6.80;;;18.80;99.90;;;;;;5088958;28;20051;-74
2023/06/09 09:13:30;;;;;;;16.77;6.68;;;19.00;99.90;;;;;;5088695;28;20500;-73
2023/06/09 09:15:58;;;;;;;18.10;6.55;;;19.00;99.90;;;;;;5088860;28;20476;-74
2023/06/09 09:18:28;;;;;;;12.52;6.25;;;19.00;99.90;;;;;;5089806;28;20054;-74
2023/06/09 09:20:54;;;;;;;16.90;6.13;;;19.10;99.90;;;;;;5088345;28;20044;-74
2023/06/09 09:23:31;;;;;;;14.43;6.30;;;19.20;99.90;;;;;;5098050;28;20059;-73
2023/06/09 09:26:02;;;;;;;12.77;6.70;;;19.40;99.90;;;;;;5095350;28;20471;-73
2023/06/09 09:28:42;;;;;;;18.95;6.75;;;19.20;99.90;;;;;;5096641;28;20044;-73
2023/06/09 09:31:08;;;;;;;17.65;8.05;;;19.20;99.90;;;;;;5096245;28;20477;-73
2023/06/09 09:33:38;;;;;;;13.40;6.50;;;19.20;99.90;;;;;;5094796;28;20050;-73
2023/06/09 09:36:10;;;;;;;17.65;6.75;;;19.50;99.90;;;;;;5094882;28;20040;-74
2023/06/09 09:38:35;;;;;;;15.90;6.57;;;19.80;99.90;;;;;;5095171;28;20090;-73
2023/06/09 09:41:03;;;;;;;16.55;6.45;;;19.80;99.90;;;;;;5094827;28;20040;-74
2023/06/09 09:43:30;;;;;;;15.90;5.72;;;20.20;99.90;;;;;;5096016;28;20036;-74
2023/06/09 09:46:06;;;;;;;18.85;6.32;;;20.10;99.90;;;;;;5095948;28;20398;-74
2023/06/09 09:48:33;;;;;;;14.50;5.65;;;19.90;99.90;;;;;;5096001;28;20371;-75
2023/06/09 09:50:58;;;;;;;16.05;6.30;;;19.50;99.90;;;;;;5094620;28;20074;-75
2023/06/09 09:53:26;;;;;;;16.98;6.43;;;20.00;99.90;;;;;;5094655;28;20044;-77
2023/06/09 09:55:54;;;;;;;15.68;6.35;;;19.90;99.90;;;;;;5095977;28;20072;-74
2023/06/09 09:58:25;;;;;;;19.35;7.35;;;20.00;99.90;;;;;;5094701;28;20056;-74
2023/06/09 10:00:51;;;;;;;20.40;7.47;;;19.70;99.90;;;;;;5094838;28;20097;-75
2023/06/09 10:03:18;;;;;;;17.65;6.72;;;19.80;99.90;;;;;;5095699;28;20047;-75
2023/06/09 10:05:46;;;;;;;18.80;7.38;;;19.80;99.90;;;;;;5095650;28;20048;-76
2023/06/09 10:08:24;;;;;;;21.35;7.57;;;19.80;99.90;;;;;;5095625;28;20032;-75
2023/06/09 10:10:51;;;;;;;18.02;7.25;;;19.90;99.90;;;;;;5095570;28;20043;-76
2023/06/09 10:13:17;;;;;;;18.73;7.50;;;20.10;99.90;;;;;;5095445;28;20485;-80
2023/06/09 10:15:43;;;;;;;21.05;7.25;;;19.90;99.90;;;;;;5095714;28;20483;-76
2023/06/09 10:18:11;;;;;;;23.67;8.15;;;19.70;99.90;;;;;;5095372;28;20532;-76
2023/06/09 10:20:37;;;;;;;20.90;7.22;;;19.60;99.90;;;;;;5095626;28;20098;-76
2023/06/09 10:23:05;;;;;;;26.42;7.22;;;19.10;99.90;;;;;;5095181;28;20502;-75
2023/06/09 10:25:31;;;;;;;21.05;8.73;;;19.30;99.90;;;;;;5095494;28;20044;-74
2023/06/09 10:27:58;;;;;;;23.85;6.95;;;19.60;99.90;;;;;;5095389;28;20043;-76
2023/06/09 10:30:24;;;;;;;23.80;7.82;;;19.50;99.90;;;;;;5093782;28;20505;-76
2023/06/09 10:33:05;;;;;;;19.67;7.35;;;19.70;99.90;;;;;;5095018;28;20056;-77
2023/06/09 10:35:33;;;;;;;15.48;6.22;;;20.00;99.90;;;;;;5094173;28;20040;-76
2023/06/09 10:38:19;;;;;;;15.00;7.05;;;20.20;99.90;;;;;;5095231;28;20048;-75
2023/06/09 10:40:49;;;;;;;24.70;6.57;;;20.00;99.90;;;;;;5093612;28;20469;-76
2023/06/09 10:43:18;;;;;;;22.05;6.63;;;19.50;99.90;;;;;;5095215;28;20036;-76
2023/06/09 10:45:55;;;;;;;19.52;6.78;;;19.20;99.90;;;;;;5094846;28;20056;-74
2023/06/09 10:48:41;;;;;;;26.23;7.15;;;19.40;99.90;;;;;;5095003;28;20121;-75
2023/06/09 10:51:31;;;;;;;16.55;6.05;;;19.90;99.90;;;;;;5094665;28;20406;-75
2023/06/09 10:54:15;;;;;;;18.77;7.03;;;19.70;99.90;;;;;;5094762;28;20126;-74
2023/06/09 10:56:52;;;;;;;19.45;6.90;;;19.70;99.90;;;;;;5094616;28;20052;-74
2023/06/09 10:59:24;;;;;;;20.27;6.60;;;20.00;99.90;;;;;;5094630;28;20566;-74
2023/06/09 11:02:05;;;;;;;18.52;6.60;;;20.00;99.90;;;;;;5094817;28;20047;-74
2023/06/09 11:04:45;;;;;;;19.50;7.07;;;20.20;99.90;;;;;;5093407;28;20048;-73
2023/06/09 11:07:27;;;;;;;21.00;6.25;;;19.90;99.90;;;;;;5093223;28;20040;-74
2023/06/09 11:09:53;;;;;;;21.02;6.75;;;20.00;99.90;;;;;;5094367;28;20048;-74
2023/06/09 11:12:27;;;;;;;25.00;7.40;;;19.80;99.90;;;;;;5093100;28;20052;-74
2023/06/09 11:14:57;;;;;;;19.63;7.97;;;19.20;99.90;;;;;;5093061;28;20056;-74
2023/06/09 11:17:42;;;;;;;19.88;7.10;;;19.30;99.90;;;;;;5094300;28;20553;-74
2023/06/09 11:20:08;;;;;;;18.65;7.38;;;19.00;99.90;;;;;;5094651;28;20071;-74
2023/06/09 11:22:54;;;;;;;24.58;8.07;;;18.90;99.90;;;;;;5094079;28;20056;-74
2023/06/09 11:25:23;;;;;;;18.95;7.30;;;19.00;99.90;;;;;;5092916;28;20459;-74
2023/06/09 11:28:09;;;;;;;19.80;7.15;;;18.90;99.90;;;;;;5092920;28;20056;-74
2023/06/09 11:30:55;;;;;;;21.02;7.25;;;18.90;99.90;;;;;;5126917;27;20476;-74
2023/06/09 11:33:57;;;;;;;23.15;8.13;;;18.90;99.90;;;;;;5093834;28;20044;-74
2023/06/09 11:36:25;;;;;;;20.20;6.68;;;18.70;99.90;;;;;;5094281;28;20039;-74
2023/06/09 11:38:52;;;;;;;20.17;6.60;;;18.90;99.90;;;;;;5093899;28;20044;-74
2023/06/09 11:41:24;;;;;;;25.20;6.85;;;19.00;99.90;;;;;;5093048;28;20125;-74
2023/06/09 11:43:52;;;;;;;19.10;6.90;;;19.10;99.90;;;;;;5093028;28;20044;-74
2023/06/09 11:46:18;;;;;;;18.38;7.18;;;19.00;99.90;;;;;;5094004;28;20051;-74
2023/06/09 11:49:01;;;;;;;14.52;6.45;;;19.10;99.90;;;;;;5093615;28;20060;-74
2023/06/09 11:51:27;;;;;;;;;;;19.00;99.90;;;;;;5093135;28;20130;-74
2023/06/09 11:53:52;;;;;;;22.35;6.95;;;19.00;99.90;;;;;;5093879;28;20011;-74
2023/06/09 11:56:18;;;;;;;18.27;6.50;;;18.80;99.90;;;;;;5093834;28;20071;-74
2023/06/09 11:58:44;;;;;;;21.98;7.03;;;18.80;99.90;;;;;;5093661;28;20032;-74
2023/06/09 12:01:10;;;;;;;21.33;7.85;;;18.90;99.90;;;;;;5093558;28;20039;-74
2023/06/09 12:03:36;;;;;;;26.45;7.10;;;18.70;99.90;;;;;;5092301;28;20040;-74
2023/06/09 12:06:03;;;;;;;18.55;6.95;;;19.00;99.90;;;;;;5093887;28;20048;-75
2023/06/09 12:08:28;;;;;;;18.45;6.75;;;18.90;99.90;;;;;;5093490;28;20445;-78
2023/06/09 12:10:54;;;;;;;23.08;7.00;;;18.90;99.90;;;;;;5092228;28;20044;-73
2023/06/09 12:13:20;;;;;;;21.75;6.97;;;18.70;99.90;;;;;;5093431;28;20055;-73
2023/06/09 12:15:52;;;;;;;20.73;7.50;;;18.70;99.90;;;;;;5093541;28;20506;-73
2023/06/09 12:18:17;;;;;;;18.98;7.70;;;18.90;99.90;;;;;;5093463;28;20503;-73
2023/06/09 12:20:46;;;;;;;16.02;6.68;;;18.90;99.90;;;;;;5093401;28;20054;-74
2023/06/09 12:23:14;;;;;;;19.08;7.28;;;19.00;99.90;;;;;;5092088;28;20060;-74
2023/06/09 12:25:42;;;;;;;18.35;7.45;;;18.80;99.90;;;;;;5093412;28;20422;-74
2023/06/09 12:28:23;;;;;;;18.95;7.40;;;18.50;99.90;;;;;;5093154;28;20379;-73
2023/06/09 12:30:51;;;;;;;17.17;7.97;;;18.90;99.90;;;;;;5093192;28;20391;-73
2023/06/09 12:33:21;;;;;;;19.42;6.53;;;18.80;99.90;;;;;;5093155;28;20067;-74
2023/06/09 12:35:52;;;;;;;19.48;6.50;;;18.90;99.90;;;;;;5093481;28;20119;-75
2023/06/09 12:38:22;;;;;;;16.77;6.55;;;19.20;99.90;;;;;;5089985;28;20170;-74
2023/06/09 12:40:52;;;;;;;18.95;7.25;;;19.10;99.90;;;;;;5078706;28;20048;-75
2023/06/09 12:43:23;;;;;;;17.38;7.22;;;19.30;99.90;;;;;;5077913;28;20047;-75
2023/06/09 12:45:54;;;;;;;19.33;7.93;;;19.30;99.90;;;;;;5072734;28;20044;-75
2023/06/09 12:48:20;;;;;;;20.58;7.75;;;19.30;99.90;;;;;;5073001;28;20044;-75
2023/06/09 12:50:46;;;;;;;19.30;7.65;;;19.30;99.90;;;;;;5071551;28;20048;-75
2023/06/09 12:53:12;;;;;;;24.25;6.80;;;19.00;99.90;;;;;;5071453;28;20178;-75
2023/06/09 12:55:40;;;;;;;19.52;7.50;;;18.80;99.90;;;;;;5071522;28;20052;-75
2023/06/09 12:58:07;;;;;;;19.90;7.63;;;18.80;99.90;;;;;;5071774;28;20071;-75
2023/06/09 13:00:34;;;;;;;23.40;7.32;;;18.90;99.90;;;;;;5074904;28;20044;-75
2023/06/09 13:03:01;;;;;;;19.42;7.30;;;19.10;99.90;;;;;;5075500;28;20055;-75
2023/06/09 13:05:30;;;;;;;19.00;7.35;;;19.20;99.90;;;;;;5076397;28;20055;-74
2023/06/09 13:08:03;;;;;;;19.00;6.55;;;18.80;99.90;;;;;;5075292;28;20414;-74
2023/06/09 13:10:30;;;;;;;18.90;7.75;;;19.10;99.90;;;;;;5076366;28;20391;-75
2023/06/09 13:12:56;;;;;;;20.13;7.43;;;19.00;99.90;;;;;;5076505;28;20047;-74
2023/06/09 13:15:24;;;;;;;21.95;8.13;;;18.80;99.90;;;;;;5075247;28;20044;-74
2023/06/09 13:17:52;;;;;;;19.48;7.43;;;19.00;99.90;;;;;;5094098;28;20032;-74
2023/06/09 13:20:19;;;;;;;19.42;7.68;;;18.90;99.90;;;;;;5096503;28;20040;-74
2023/06/09 13:22:46;;;;;;;19.17;8.15;;;19.00;99.90;;;;;;5095191;28;20071;-74
2023/06/09 13:25:12;;;;;;;19.85;7.15;;;18.80;99.90;;;;;;5096524;28;20126;-77
2023/06/09 13:27:40;;;;;;;19.40;7.97;;;19.00;99.90;;;;;;5094237;28;20044;-74
2023/06/09 13:30:07;;;;;;;18.52;6.72;;;18.90;99.90;;;;;;5094172;28;20419;-74
2023/06/09 13:32:32;;;;;;;16.20;7.40;;;18.90;99.90;;;;;;5095985;28;20040;-74
2023/06/09 13:34:58;;;;;;;20.35;7.53;;;19.20;99.90;;;;;;5094898;28;20444;-74
2023/06/09 13:37:24;;;;;;;16.77;7.03;;;19.10;99.90;;;;;;5094800;28;20043;-74
2023/06/09 13:39:49;;;;;;;18.75;9.05;;;19.00;99.90;;;;;;5094810;28;20061;-74
2023/06/09 13:42:15;;;;;;;16.38;7.80;;;19.20;99.90;;;;;;5096083;28;20040;-74
2023/06/09 13:44:40;;;;;;;18.20;7.65;;;19.00;99.90;;;;;;5095993;28;20055;-74
2023/06/09 13:47:06;;;;;;;20.17;6.95;;;18.80;99.90;;;;;;5094938;28;20082;-74
2023/06/09 13:49:32;;;;;;;21.52;8.13;;;19.00;99.90;;;;;;5094845;28;20098;-74
2023/06/09 13:51:58;;;;;;;15.68;7.75;;;19.10;99.90;;;;;;5095969;28;20098;-74